Heth, AR (72346)

3:25 PM CDT on July 27, 2016 (GMT -0500)
West Memphis Municipal | | Change Station

Elev 213 ft 35.14 °N, 90.23 °W | Updated 13 minutes ago

Mostly Cloudy
Mostly Cloudy
80 °F
Feels Like 86 °F
N
4
Wind Variable Wind from SW

Today
High -- | Low -- °F
--% Chance of Precip.
Yesterday
High -- | Low -- °F
Precip. -- in
Pressure 29.90 in
Visibility 10.0 miles
Clouds Scattered Clouds 1300 ft
Mostly Cloudy 7000 ft
Heat Index 86 °F
Dew Point 77 °F
Humidity 90%
Rainfall 0.07 in
Snow Depth Not available.
6:07 AM 8:08 PM
Last Quarter, 40% visible
SPECI KAWM 272012Z AUTO 23003KT 10SM SCT013 BKN070 27/25 A2990 RMK AO2 LTG DSNT E AND W AND NW RAB1955E11 P0000 T02670250
Pressure 29.90 in
Visibility 10.0 miles
Clouds Scattered Clouds 1300 ft
Mostly Cloudy 7000 ft
Heat Index 86 °F
Dew Point 77 °F
Humidity 90%
Rainfall 0.07 in
Snow Depth Not available.
6:07 AM 8:08 PM
Last Quarter, 40% visible
SPECI KAWM 272012Z AUTO 23003KT 10SM SCT013 BKN070 27/25 A2990 RMK AO2 LTG DSNT E AND W AND NW RAB1955E11 P0000 T02670250

10-Day Weather Forecast

Almanac

Astronomy

Jul. 27, 2016 Rise Set
Actual Time
Civil Twilight
Nautical Twilight
Astronomical Twilight
Moon
Length of Visible Light
Length of Day
Tomorrow will be .
, % of the Moon is Illuminated

Today's Extremes

State Highs State Lows

Community

WunderPhotos

Upload Photos

1,927,931 photos uploaded!

WunderBlog® & News

Nearby

Air Quality

  Air Quality AQ Index Pollutant
Not available.

Snow Depth

Station Depth Elevation

Earthquake Activity

City Distance Mag. Time & Date
Minimum magnitude displayed is 2.5.

Coastal Water Temperatures

Place Temperature

Stations

Nearby Weather Stations

Station Location Temp. Windchill Dew Point Humidity Wind Precip. Elev Updated Type
                   

Watches & Warnings

There are currently no watches in effect.